sensor_id;sensor_type;location;lat;lon;timestamp;temperature;humidity
8487;DHT22;4280;50.534;8.708;2024-02-28T00:00:04;2.30;1.00
8487;DHT22;4280;50.534;8.708;2024-02-28T00:02:31;2.30;1.00
8487;DHT22;4280;50.534;8.708;2024-02-28T00:04:56;2.30;1.00
8487;DHT22;4280;50.534;8.708;2024-02-28T00:07:24;2.20;1.00
8487;DHT22;4280;50.534;8.708;2024-02-28T00:09:50;2.40;1.00
8487;DHT22;4280;50.534;8.708;2024-02-28T00:12:15;2.40;1.00
8487;DHT22;4280;50.534;8.708;2024-02-28T00:14:41;2.40;1.00
8487;DHT22;4280;50.534;8.708;2024-02-28T00:17:07;2.40;1.00
8487;DHT22;4280;50.534;8.708;2024-02-28T00:19:33;2.20;1.00
8487;DHT22;4280;50.534;8.708;2024-02-28T00:22:01;2.10;1.00
8487;DHT22;4280;50.534;8.708;2024-02-28T00:24:27;2.10;1.00
8487;DHT22;4280;50.534;8.708;2024-02-28T00:26:53;2.00;1.00
8487;DHT22;4280;50.534;8.708;2024-02-28T00:29:19;1.90;1.00
8487;DHT22;4280;50.534;8.708;2024-02-28T00:31:44;1.90;1.00
8487;DHT22;4280;50.534;8.708;2024-02-28T00:34:10;1.90;1.00
8487;DHT22;4280;50.534;8.708;2024-02-28T00:36:36;2.00;1.00
8487;DHT22;4280;50.534;8.708;2024-02-28T00:39:01;2.20;1.00
8487;DHT22;4280;50.534;8.708;2024-02-28T00:41:27;2.20;1.00
8487;DHT22;4280;50.534;8.708;2024-02-28T00:43:53;2.10;1.00
8487;DHT22;4280;50.534;8.708;2024-02-28T00:46:19;1.90;1.00
8487;DHT22;4280;50.534;8.708;2024-02-28T00:48:44;1.80;1.00
8487;DHT22;4280;50.534;8.708;2024-02-28T00:51:10;1.70;1.00
8487;DHT22;4280;50.534;8.708;2024-02-28T00:53:36;1.50;1.00
8487;DHT22;4280;50.534;8.708;2024-02-28T00:56:02;1.30;1.00
8487;DHT22;4280;50.534;8.708;2024-02-28T00:58:29;1.30;1.00
8487;DHT22;4280;50.534;8.708;2024-02-28T01:00:56;1.40;1.00
8487;DHT22;4280;50.534;8.708;2024-02-28T01:03:22;1.70;1.00
8487;DHT22;4280;50.534;8.708;2024-02-28T01:05:49;1.70;1.00
8487;DHT22;4280;50.534;8.708;2024-02-28T01:08:16;1.80;1.00
8487;DHT22;4280;50.534;8.708;2024-02-28T01:10:43;1.80;1.00
8487;DHT22;4280;50.534;8.708;2024-02-28T01:13:09;1.70;1.00
8487;DHT22;4280;50.534;8.708;2024-02-28T01:15:35;1.70;1.00
8487;DHT22;4280;50.534;8.708;2024-02-28T01:18:01;1.60;1.00
8487;DHT22;4280;50.534;8.708;2024-02-28T01:20:26;1.70;1.00
8487;DHT22;4280;50.534;8.708;2024-02-28T01:22:52;1.60;1.00
8487;DHT22;4280;50.534;8.708;2024-02-28T01:25:18;1.50;1.00
8487;DHT22;4280;50.534;8.708;2024-02-28T01:27:44;1.30;1.00
8487;DHT22;4280;50.534;8.708;2024-02-28T01:30:10;1.30;1.00
8487;DHT22;4280;50.534;8.708;2024-02-28T01:32:36;1.20;1.00
8487;DHT22;4280;50.534;8.708;2024-02-28T01:35:05;0.90;1.00
8487;DHT22;4280;50.534;8.708;2024-02-28T01:37:31;1.30;1.00
8487;DHT22;4280;50.534;8.708;2024-02-28T01:39:57;1.50;1.00
8487;DHT22;4280;50.534;8.708;2024-02-28T01:42:22;1.50;1.00
8487;DHT22;4280;50.534;8.708;2024-02-28T01:44:49;1.50;1.00
8487;DHT22;4280;50.534;8.708;2024-02-28T01:47:15;1.40;1.00
8487;DHT22;4280;50.534;8.708;2024-02-28T01:49:42;1.30;1.00
8487;DHT22;4280;50.534;8.708;2024-02-28T01:52:09;1.10;1.00
8487;DHT22;4280;50.534;8.708;2024-02-28T01:54:35;1.30;1.00
8487;DHT22;4280;50.534;8.708;2024-02-28T01:57:02;1.10;1.00
8487;DHT22;4280;50.534;8.708;2024-02-28T01:59:28;1.20;1.00
8487;DHT22;4280;50.534;8.708;2024-02-28T02:01:55;1.10;1.00
8487;DHT22;4280;50.534;8.708;2024-02-28T02:04:21;1.20;1.00
8487;DHT22;4280;50.534;8.708;2024-02-28T02:06:48;1.20;1.00
8487;DHT22;4280;50.534;8.708;2024-02-28T02:09:15;1.30;1.00
8487;DHT22;4280;50.534;8.708;2024-02-28T02:11:41;1.10;1.00
8487;DHT22;4280;50.534;8.708;2024-02-28T02:14:07;1.00;1.00
8487;DHT22;4280;50.534;8.708;2024-02-28T02:16:33;0.90;1.00
8487;DHT22;4280;50.534;8.708;2024-02-28T02:18:58;0.90;1.00
8487;DHT22;4280;50.534;8.708;2024-02-28T02:21:29;0.80;1.00
8487;DHT22;4280;50.534;8.708;2024-02-28T02:23:56;0.60;1.00
8487;DHT22;4280;50.534;8.708;2024-02-28T02:26:22;0.40;1.00
8487;DHT22;4280;50.534;8.708;2024-02-28T02:28:48;0.50;1.00
8487;DHT22;4280;50.534;8.708;2024-02-28T02:31:14;0.40;1.00
8487;DHT22;4280;50.534;8.708;2024-02-28T02:33:40;0.10;1.00
8487;DHT22;4280;50.534;8.708;2024-02-28T02:36:05;0.20;1.00
8487;DHT22;4280;50.534;8.708;2024-02-28T02:38:31;-0.20;1.00
8487;DHT22;4280;50.534;8.708;2024-02-28T02:40:57;-0.10;1.00
8487;DHT22;4280;50.534;8.708;2024-02-28T02:43:24;0.10;1.00
8487;DHT22;4280;50.534;8.708;2024-02-28T02:45:49;0.20;1.00
8487;DHT22;4280;50.534;8.708;2024-02-28T02:48:15;0.00;1.00
8487;DHT22;4280;50.534;8.708;2024-02-28T02:50:41;-0.20;1.00
8487;DHT22;4280;50.534;8.708;2024-02-28T02:53:10;-0.50;1.00
8487;DHT22;4280;50.534;8.708;2024-02-28T02:55:36;-0.70;1.00
8487;DHT22;4280;50.534;8.708;2024-02-28T02:58:02;-0.60;1.00
8487;DHT22;4280;50.534;8.708;2024-02-28T03:00:28;-0.60;1.00
8487;DHT22;4280;50.534;8.708;2024-02-28T03:02:54;-0.70;1.00
8487;DHT22;4280;50.534;8.708;2024-02-28T03:05:20;-0.60;1.00
8487;DHT22;4280;50.534;8.708;2024-02-28T03:07:45;-0.60;1.00
8487;DHT22;4280;50.534;8.708;2024-02-28T03:10:11;-0.60;1.00
8487;DHT22;4280;50.534;8.708;2024-02-28T03:12:37;-0.70;1.00
8487;DHT22;4280;50.534;8.708;2024-02-28T03:15:03;-0.80;1.00
8487;DHT22;4280;50.534;8.708;2024-02-28T03:17:29;-0.80;1.00
8487;DHT22;4280;50.534;8.708;2024-02-28T03:19:55;-0.80;1.00
8487;DHT22;4280;50.534;8.708;2024-02-28T03:22:21;-0.60;1.00
8487;DHT22;4280;50.534;8.708;2024-02-28T03:24:47;-0.40;1.00
8487;DHT22;4280;50.534;8.708;2024-02-28T03:27:14;-0.20;1.00
8487;DHT22;4280;50.534;8.708;2024-02-28T03:29:39;-0.20;1.00
8487;DHT22;4280;50.534;8.708;2024-02-28T03:32:05;-0.20;1.00
8487;DHT22;4280;50.534;8.708;2024-02-28T03:34:31;-0.20;1.00
8487;DHT22;4280;50.534;8.708;2024-02-28T03:36:57;-0.20;1.00
8487;DHT22;4280;50.534;8.708;2024-02-28T03:39:23;-0.30;1.00
8487;DHT22;4280;50.534;8.708;2024-02-28T03:41:48;-0.40;1.00
8487;DHT22;4280;50.534;8.708;2024-02-28T03:44:14;-0.50;1.00
8487;DHT22;4280;50.534;8.708;2024-02-28T03:46:40;-0.50;1.00
8487;DHT22;4280;50.534;8.708;2024-02-28T03:49:05;-0.50;1.00
8487;DHT22;4280;50.534;8.708;2024-02-28T03:51:31;-0.50;1.00
8487;DHT22;4280;50.534;8.708;2024-02-28T03:53:57;-0.40;1.00
8487;DHT22;4280;50.534;8.708;2024-02-28T03:56:26;-0.40;1.00
8487;DHT22;4280;50.534;8.708;2024-02-28T03:58:53;-0.40;1.00
8487;DHT22;4280;50.534;8.708;2024-02-28T04:01:19;-0.40;1.00
8487;DHT22;4280;50.534;8.708;2024-02-28T04:03:44;-0.50;1.00
8487;DHT22;4280;50.534;8.708;2024-02-28T04:06:11;-0.50;1.00
8487;DHT22;4280;50.534;8.708;2024-02-28T04:08:37;-0.60;1.00
8487;DHT22;4280;50.534;8.708;2024-02-28T04:11:03;-0.60;1.00
8487;DHT22;4280;50.534;8.708;2024-02-28T04:13:28;-0.70;1.00
8487;DHT22;4280;50.534;8.708;2024-02-28T04:15:54;-1.00;1.00
8487;DHT22;4280;50.534;8.708;2024-02-28T04:18:20;-1.20;1.00
8487;DHT22;4280;50.534;8.708;2024-02-28T04:20:46;-1.10;1.00
8487;DHT22;4280;50.534;8.708;2024-02-28T04:23:12;-0.90;1.00
8487;DHT22;4280;50.534;8.708;2024-02-28T04:25:38;-0.90;1.00
8487;DHT22;4280;50.534;8.708;2024-02-28T04:28:06;-0.80;1.00
8487;DHT22;4280;50.534;8.708;2024-02-28T04:30:33;-0.50;1.00
8487;DHT22;4280;50.534;8.708;2024-02-28T04:32:58;-0.30;1.00
8487;DHT22;4280;50.534;8.708;2024-02-28T04:35:24;-0.20;1.00
8487;DHT22;4280;50.534;8.708;2024-02-28T04:37:50;-0.20;1.00
8487;DHT22;4280;50.534;8.708;2024-02-28T04:40:15;-0.10;1.00
8487;DHT22;4280;50.534;8.708;2024-02-28T04:42:41;-0.10;1.00
8487;DHT22;4280;50.534;8.708;2024-02-28T04:45:08;-0.10;1.00
8487;DHT22;4280;50.534;8.708;2024-02-28T04:47:34;-0.10;1.00
8487;DHT22;4280;50.534;8.708;2024-02-28T04:50:01;-0.20;1.00
8487;DHT22;4280;50.534;8.708;2024-02-28T04:52:30;-0.10;1.00
8487;DHT22;4280;50.534;8.708;2024-02-28T04:54:56;-0.10;1.00
8487;DHT22;4280;50.534;8.708;2024-02-28T04:57:22;-0.10;1.00
8487;DHT22;4280;50.534;8.708;2024-02-28T04:59:47;-0.10;1.00
8487;DHT22;4280;50.534;8.708;2024-02-28T05:02:13;0.00;1.00
8487;DHT22;4280;50.534;8.708;2024-02-28T05:04:39;0.00;1.00
8487;DHT22;4280;50.534;8.708;2024-02-28T05:07:04;0.00;1.00
8487;DHT22;4280;50.534;8.708;2024-02-28T05:09:32;0.00;1.00
8487;DHT22;4280;50.534;8.708;2024-02-28T05:11:59;0.00;1.00
8487;DHT22;4280;50.534;8.708;2024-02-28T05:14:25;0.10;1.00
8487;DHT22;4280;50.534;8.708;2024-02-28T05:16:50;0.10;1.00
8487;DHT22;4280;50.534;8.708;2024-02-28T05:19:16;0.10;1.00
8487;DHT22;4280;50.534;8.708;2024-02-28T05:21:44;0.10;1.00
8487;DHT22;4280;50.534;8.708;2024-02-28T05:24:10;0.10;1.00
8487;DHT22;4280;50.534;8.708;2024-02-28T05:26:36;0.10;1.00
8487;DHT22;4280;50.534;8.708;2024-02-28T05:29:03;0.20;1.00
8487;DHT22;4280;50.534;8.708;2024-02-28T05:31:29;0.30;1.00
8487;DHT22;4280;50.534;8.708;2024-02-28T05:33:56;0.40;1.00
8487;DHT22;4280;50.534;8.708;2024-02-28T05:36:24;0.40;1.00
8487;DHT22;4280;50.534;8.708;2024-02-28T05:38:52;0.50;1.00
8487;DHT22;4280;50.534;8.708;2024-02-28T05:41:19;0.50;1.00
8487;DHT22;4280;50.534;8.708;2024-02-28T05:43:44;0.50;1.00
8487;DHT22;4280;50.534;8.708;2024-02-28T05:46:11;0.60;1.00
8487;DHT22;4280;50.534;8.708;2024-02-28T05:48:37;0.60;1.00
8487;DHT22;4280;50.534;8.708;2024-02-28T05:51:03;0.60;1.00
8487;DHT22;4280;50.534;8.708;2024-02-28T05:53:29;0.60;1.00
8487;DHT22;4280;50.534;8.708;2024-02-28T05:56:01;0.70;1.00
8487;DHT22;4280;50.534;8.708;2024-02-28T05:58:28;0.70;1.00
8487;DHT22;4280;50.534;8.708;2024-02-28T06:00:54;0.70;1.00
8487;DHT22;4280;50.534;8.708;2024-02-28T06:03:19;0.80;1.00
8487;DHT22;4280;50.534;8.708;2024-02-28T06:05:45;0.80;1.00
8487;DHT22;4280;50.534;8.708;2024-02-28T06:08:12;0.80;1.00
8487;DHT22;4280;50.534;8.708;2024-02-28T06:10:38;0.70;1.00
8487;DHT22;4280;50.534;8.708;2024-02-28T06:13:04;0.80;1.00
8487;DHT22;4280;50.534;8.708;2024-02-28T06:15:29;0.80;1.00
8487;DHT22;4280;50.534;8.708;2024-02-28T06:17:59;0.90;1.00
8487;DHT22;4280;50.534;8.708;2024-02-28T06:20:26;0.90;1.00
8487;DHT22;4280;50.534;8.708;2024-02-28T06:22:52;0.90;1.00
8487;DHT22;4280;50.534;8.708;2024-02-28T06:25:18;0.90;1.00
8487;DHT22;4280;50.534;8.708;2024-02-28T06:27:45;0.90;1.00
8487;DHT22;4280;50.534;8.708;2024-02-28T06:30:12;1.00;1.80
8487;DHT22;4280;50.534;8.708;2024-02-28T06:32:40;0.90;1.90
8487;DHT22;4280;50.534;8.708;2024-02-28T06:35:07;0.90;2.20
8487;DHT22;4280;50.534;8.708;2024-02-28T06:37:34;1.00;2.40
8487;DHT22;4280;50.534;8.708;2024-02-28T06:40:00;1.00;4.80
8487;DHT22;4280;50.534;8.708;2024-02-28T06:42:25;1.10;4.90
8487;DHT22;4280;50.534;8.708;2024-02-28T06:44:51;1.10;5.00
8487;DHT22;4280;50.534;8.708;2024-02-28T06:47:17;1.10;4.90
8487;DHT22;4280;50.534;8.708;2024-02-28T06:49:45;1.10;4.10
8487;DHT22;4280;50.534;8.708;2024-02-28T06:52:11;1.10;6.40
8487;DHT22;4280;50.534;8.708;2024-02-28T06:54:37;1.10;5.60
8487;DHT22;4280;50.534;8.708;2024-02-28T06:57:03;1.10;4.30
8487;DHT22;4280;50.534;8.708;2024-02-28T06:59:29;1.10;4.10
8487;DHT22;4280;50.534;8.708;2024-02-28T07:01:54;1.10;5.30
8487;DHT22;4280;50.534;8.708;2024-02-28T07:04:20;1.10;7.80
8487;DHT22;4280;50.534;8.708;2024-02-28T07:06:46;1.10;7.70
8487;DHT22;4280;50.534;8.708;2024-02-28T07:09:11;0.90;6.00
8487;DHT22;4280;50.534;8.708;2024-02-28T07:11:38;1.00;4.60
8487;DHT22;4280;50.534;8.708;2024-02-28T07:14:04;1.00;4.40
8487;DHT22;4280;50.534;8.708;2024-02-28T07:16:30;1.00;8.70
8487;DHT22;4280;50.534;8.708;2024-02-28T07:18:59;1.00;11.50
8487;DHT22;4280;50.534;8.708;2024-02-28T07:21:25;0.90;9.40
8487;DHT22;4280;50.534;8.708;2024-02-28T07:23:51;0.90;10.80
8487;DHT22;4280;50.534;8.708;2024-02-28T07:26:17;1.00;12.00
8487;DHT22;4280;50.534;8.708;2024-02-28T07:28:43;1.00;14.30
8487;DHT22;4280;50.534;8.708;2024-02-28T07:31:15;1.10;15.50
8487;DHT22;4280;50.534;8.708;2024-02-28T07:33:41;1.10;17.00
8487;DHT22;4280;50.534;8.708;2024-02-28T07:36:07;1.10;17.00
8487;DHT22;4280;50.534;8.708;2024-02-28T07:38:33;1.00;14.50
8487;DHT22;4280;50.534;8.708;2024-02-28T07:40:59;1.00;14.20
8487;DHT22;4280;50.534;8.708;2024-02-28T07:43:25;1.00;13.50
8487;DHT22;4280;50.534;8.708;2024-02-28T07:45:50;1.20;13.10
8487;DHT22;4280;50.534;8.708;2024-02-28T07:48:16;1.20;11.10
8487;DHT22;4280;50.534;8.708;2024-02-28T07:50:44;1.10;1.00
8487;DHT22;4280;50.534;8.708;2024-02-28T07:53:10;1.20;1.00
8487;DHT22;4280;50.534;8.708;2024-02-28T07:55:35;1.30;1.00
8487;DHT22;4280;50.534;8.708;2024-02-28T07:58:01;1.20;1.00
8487;DHT22;4280;50.534;8.708;2024-02-28T08:00:27;1.10;1.00
8487;DHT22;4280;50.534;8.708;2024-02-28T08:02:53;1.30;1.00
8487;DHT22;4280;50.534;8.708;2024-02-28T08:05:19;1.20;1.00
8487;DHT22;4280;50.534;8.708;2024-02-28T08:07:45;1.30;1.00
8487;DHT22;4280;50.534;8.708;2024-02-28T08:10:11;1.30;1.00
8487;DHT22;4280;50.534;8.708;2024-02-28T08:12:37;1.50;1.00
8487;DHT22;4280;50.534;8.708;2024-02-28T08:15:03;1.30;1.00
8487;DHT22;4280;50.534;8.708;2024-02-28T08:17:29;1.40;1.00
8487;DHT22;4280;50.534;8.708;2024-02-28T08:19:56;1.50;1.00
8487;DHT22;4280;50.534;8.708;2024-02-28T08:22:22;1.60;1.00
8487;DHT22;4280;50.534;8.708;2024-02-28T08:24:51;1.30;1.00
8487;DHT22;4280;50.534;8.708;2024-02-28T08:27:20;1.40;1.00
8487;DHT22;4280;50.534;8.708;2024-02-28T08:29:46;1.50;1.00
8487;DHT22;4280;50.534;8.708;2024-02-28T08:32:12;1.50;1.00
8487;DHT22;4280;50.534;8.708;2024-02-28T08:34:38;1.40;1.00
8487;DHT22;4280;50.534;8.708;2024-02-28T08:37:05;1.50;1.00
8487;DHT22;4280;50.534;8.708;2024-02-28T08:39:30;1.50;1.00
8487;DHT22;4280;50.534;8.708;2024-02-28T08:41:56;1.50;1.00
8487;DHT22;4280;50.534;8.708;2024-02-28T08:44:21;1.50;1.00
8487;DHT22;4280;50.534;8.708;2024-02-28T08:46:48;1.60;1.00
8487;DHT22;4280;50.534;8.708;2024-02-28T08:49:14;1.60;1.00
8487;DHT22;4280;50.534;8.708;2024-02-28T08:51:40;1.60;1.00
8487;DHT22;4280;50.534;8.708;2024-02-28T08:54:06;1.60;1.00
8487;DHT22;4280;50.534;8.708;2024-02-28T08:56:32;1.70;1.00
8487;DHT22;4280;50.534;8.708;2024-02-28T08:58:58;1.70;1.00
8487;DHT22;4280;50.534;8.708;2024-02-28T09:01:24;1.80;1.00
8487;DHT22;4280;50.534;8.708;2024-02-28T09:03:50;1.90;1.00
8487;DHT22;4280;50.534;8.708;2024-02-28T09:06:16;1.90;1.00
8487;DHT22;4280;50.534;8.708;2024-02-28T09:08:42;1.80;1.00
8487;DHT22;4280;50.534;8.708;2024-02-28T09:11:08;1.70;1.00
8487;DHT22;4280;50.534;8.708;2024-02-28T09:13:33;1.80;1.00
8487;DHT22;4280;50.534;8.708;2024-02-28T09:16:01;1.80;1.00
8487;DHT22;4280;50.534;8.708;2024-02-28T09:18:27;2.00;1.00
8487;DHT22;4280;50.534;8.708;2024-02-28T09:20:53;2.10;1.00
8487;DHT22;4280;50.534;8.708;2024-02-28T09:23:19;2.00;1.00
8487;DHT22;4280;50.534;8.708;2024-02-28T09:25:45;2.20;1.00
8487;DHT22;4280;50.534;8.708;2024-02-28T09:28:10;2.40;1.00
8487;DHT22;4280;50.534;8.708;2024-02-28T09:30:39;2.40;1.00
8487;DHT22;4280;50.534;8.708;2024-02-28T09:33:04;2.40;1.00
8487;DHT22;4280;50.534;8.708;2024-02-28T09:35:30;2.50;1.00
8487;DHT22;4280;50.534;8.708;2024-02-28T09:37:56;2.30;1.00
8487;DHT22;4280;50.534;8.708;2024-02-28T09:40:22;2.20;1.00
8487;DHT22;4280;50.534;8.708;2024-02-28T09:42:52;2.20;1.00
8487;DHT22;4280;50.534;8.708;2024-02-28T09:45:22;2.20;1.00
8487;DHT22;4280;50.534;8.708;2024-02-28T09:47:49;2.10;1.00
8487;DHT22;4280;50.534;8.708;2024-02-28T09:50:15;2.00;1.00
8487;DHT22;4280;50.534;8.708;2024-02-28T09:52:44;2.10;1.00
8487;DHT22;4280;50.534;8.708;2024-02-28T09:55:10;2.10;1.00
8487;DHT22;4280;50.534;8.708;2024-02-28T09:57:36;2.40;1.00
8487;DHT22;4280;50.534;8.708;2024-02-28T10:00:03;2.70;1.00
8487;DHT22;4280;50.534;8.708;2024-02-28T10:02:30;2.70;1.00
8487;DHT22;4280;50.534;8.708;2024-02-28T10:07:33;2.50;1.00
8487;DHT22;4280;50.534;8.708;2024-02-28T10:09:59;2.50;1.00
8487;DHT22;4280;50.534;8.708;2024-02-28T10:12:25;2.30;1.00
8487;DHT22;4280;50.534;8.708;2024-02-28T10:14:50;2.50;1.00
8487;DHT22;4280;50.534;8.708;2024-02-28T10:17:16;2.80;1.00
8487;DHT22;4280;50.534;8.708;2024-02-28T10:19:42;2.70;1.00
8487;DHT22;4280;50.534;8.708;2024-02-28T10:22:08;2.80;1.00
8487;DHT22;4280;50.534;8.708;2024-02-28T10:24:34;2.80;1.00
8487;DHT22;4280;50.534;8.708;2024-02-28T10:27:01;3.00;1.00
8487;DHT22;4280;50.534;8.708;2024-02-28T10:29:27;2.90;1.00
8487;DHT22;4280;50.534;8.708;2024-02-28T10:31:58;2.90;1.00
8487;DHT22;4280;50.534;8.708;2024-02-28T10:34:25;2.90;1.00
8487;DHT22;4280;50.534;8.708;2024-02-28T10:36:51;2.80;1.00
8487;DHT22;4280;50.534;8.708;2024-02-28T10:39:17;3.30;1.00
8487;DHT22;4280;50.534;8.708;2024-02-28T10:41:47;3.00;1.00
8487;DHT22;4280;50.534;8.708;2024-02-28T10:44:14;3.10;1.00
8487;DHT22;4280;50.534;8.708;2024-02-28T10:46:42;3.20;1.00
8487;DHT22;4280;50.534;8.708;2024-02-28T10:49:09;3.30;1.00
8487;DHT22;4280;50.534;8.708;2024-02-28T10:51:36;3.30;1.00
8487;DHT22;4280;50.534;8.708;2024-02-28T10:54:11;3.60;1.00
8487;DHT22;4280;50.534;8.708;2024-02-28T10:56:38;3.80;1.00
8487;DHT22;4280;50.534;8.708;2024-02-28T10:59:08;3.70;1.00
8487;DHT22;4280;50.534;8.708;2024-02-28T11:01:40;3.80;1.00
8487;DHT22;4280;50.534;8.708;2024-02-28T11:04:15;4.00;1.00
8487;DHT22;4280;50.534;8.708;2024-02-28T11:06:48;4.00;1.00
8487;DHT22;4280;50.534;8.708;2024-02-28T11:09:20;4.10;1.00
8487;DHT22;4280;50.534;8.708;2024-02-28T11:11:51;4.10;1.00
8487;DHT22;4280;50.534;8.708;2024-02-28T11:14:17;4.00;1.00
8487;DHT22;4280;50.534;8.708;2024-02-28T11:16:48;4.10;1.00
8487;DHT22;4280;50.534;8.708;2024-02-28T11:19:24;3.90;1.00
8487;DHT22;4280;50.534;8.708;2024-02-28T11:21:57;4.70;1.00
8487;DHT22;4280;50.534;8.708;2024-02-28T11:24:24;4.80;1.00
8487;DHT22;4280;50.534;8.708;2024-02-28T11:26:53;4.20;1.00
8487;DHT22;4280;50.534;8.708;2024-02-28T11:29:26;4.20;1.00
8487;DHT22;4280;50.534;8.708;2024-02-28T11:31:53;4.30;1.00
8487;DHT22;4280;50.534;8.708;2024-02-28T11:34:20;4.90;1.00
8487;DHT22;4280;50.534;8.708;2024-02-28T11:36:50;4.90;1.00
8487;DHT22;4280;50.534;8.708;2024-02-28T11:39:17;5.40;1.00
8487;DHT22;4280;50.534;8.708;2024-02-28T11:41:43;5.10;1.00
8487;DHT22;4280;50.534;8.708;2024-02-28T11:44:12;5.10;1.00
8487;DHT22;4280;50.534;8.708;2024-02-28T11:46:43;5.40;1.00
8487;DHT22;4280;50.534;8.708;2024-02-28T11:49:10;5.30;1.00
8487;DHT22;4280;50.534;8.708;2024-02-28T11:51:36;5.50;1.00
8487;DHT22;4280;50.534;8.708;2024-02-28T11:54:02;5.50;1.00
8487;DHT22;4280;50.534;8.708;2024-02-28T11:56:27;5.70;1.00
8487;DHT22;4280;50.534;8.708;2024-02-28T11:58:53;5.70;1.00
8487;DHT22;4280;50.534;8.708;2024-02-28T12:01:41;5.50;1.00
8487;DHT22;4280;50.534;8.708;2024-02-28T12:04:12;5.40;1.00
8487;DHT22;4280;50.534;8.708;2024-02-28T12:06:41;5.20;1.00
8487;DHT22;4280;50.534;8.708;2024-02-28T12:09:08;5.00;1.00
8487;DHT22;4280;50.534;8.708;2024-02-28T12:11:37;5.30;1.00
8487;DHT22;4280;50.534;8.708;2024-02-28T12:14:04;5.30;1.00
8487;DHT22;4280;50.534;8.708;2024-02-28T12:16:32;5.30;1.00
8487;DHT22;4280;50.534;8.708;2024-02-28T12:18:58;5.50;1.00
8487;DHT22;4280;50.534;8.708;2024-02-28T12:21:23;5.80;1.00
8487;DHT22;4280;50.534;8.708;2024-02-28T12:23:49;5.70;1.00
8487;DHT22;4280;50.534;8.708;2024-02-28T12:26:18;5.50;1.00
8487;DHT22;4280;50.534;8.708;2024-02-28T12:28:44;5.60;1.00
8487;DHT22;4280;50.534;8.708;2024-02-28T12:31:11;5.70;1.00
8487;DHT22;4280;50.534;8.708;2024-02-28T12:33:38;5.70;1.00
8487;DHT22;4280;50.534;8.708;2024-02-28T12:36:05;5.70;1.00
8487;DHT22;4280;50.534;8.708;2024-02-28T12:38:30;5.70;1.00
8487;DHT22;4280;50.534;8.708;2024-02-28T12:40:57;5.70;1.00
8487;DHT22;4280;50.534;8.708;2024-02-28T12:43:23;5.80;1.00
8487;DHT22;4280;50.534;8.708;2024-02-28T12:45:50;6.00;1.00
8487;DHT22;4280;50.534;8.708;2024-02-28T12:48:16;6.20;1.00
8487;DHT22;4280;50.534;8.708;2024-02-28T12:50:41;6.00;1.00
8487;DHT22;4280;50.534;8.708;2024-02-28T12:53:07;6.10;1.00
8487;DHT22;4280;50.534;8.708;2024-02-28T12:55:33;6.00;1.00
8487;DHT22;4280;50.534;8.708;2024-02-28T12:57:59;5.90;1.00
8487;DHT22;4280;50.534;8.708;2024-02-28T13:00:30;6.10;1.00
8487;DHT22;4280;50.534;8.708;2024-02-28T13:02:57;6.20;1.00
8487;DHT22;4280;50.534;8.708;2024-02-28T13:05:38;6.50;1.00
8487;DHT22;4280;50.534;8.708;2024-02-28T13:08:04;6.70;1.00
8487;DHT22;4280;50.534;8.708;2024-02-28T13:10:30;6.80;1.00
8487;DHT22;4280;50.534;8.708;2024-02-28T13:12:55;6.90;1.00
8487;DHT22;4280;50.534;8.708;2024-02-28T13:15:21;7.00;1.00
8487;DHT22;4280;50.534;8.708;2024-02-28T13:17:47;7.00;1.00
8487;DHT22;4280;50.534;8.708;2024-02-28T13:20:15;6.90;1.00
8487;DHT22;4280;50.534;8.708;2024-02-28T13:22:41;7.00;1.00
8487;DHT22;4280;50.534;8.708;2024-02-28T13:25:07;7.20;1.00
8487;DHT22;4280;50.534;8.708;2024-02-28T13:27:33;7.40;1.00
8487;DHT22;4280;50.534;8.708;2024-02-28T13:29:59;7.40;1.00
8487;DHT22;4280;50.534;8.708;2024-02-28T13:32:25;7.60;1.00
8487;DHT22;4280;50.534;8.708;2024-02-28T13:34:51;7.50;1.00
8487;DHT22;4280;50.534;8.708;2024-02-28T13:37:16;7.60;1.00
8487;DHT22;4280;50.534;8.708;2024-02-28T13:39:42;7.60;1.00
8487;DHT22;4280;50.534;8.708;2024-02-28T13:42:08;7.60;1.00
8487;DHT22;4280;50.534;8.708;2024-02-28T13:44:35;7.80;1.00
8487;DHT22;4280;50.534;8.708;2024-02-28T13:47:02;7.90;1.00
8487;DHT22;4280;50.534;8.708;2024-02-28T13:49:28;8.00;1.00
8487;DHT22;4280;50.534;8.708;2024-02-28T13:51:54;7.90;1.00
8487;DHT22;4280;50.534;8.708;2024-02-28T13:54:20;7.80;1.00
8487;DHT22;4280;50.534;8.708;2024-02-28T13:56:46;7.80;1.00
8487;DHT22;4280;50.534;8.708;2024-02-28T13:59:12;7.80;1.00
8487;DHT22;4280;50.534;8.708;2024-02-28T14:01:38;7.70;1.00
8487;DHT22;4280;50.534;8.708;2024-02-28T14:04:04;7.70;1.00
8487;DHT22;4280;50.534;8.708;2024-02-28T14:06:29;7.70;1.00
8487;DHT22;4280;50.534;8.708;2024-02-28T14:08:55;7.80;1.00
8487;DHT22;4280;50.534;8.708;2024-02-28T14:11:22;7.70;1.00
8487;DHT22;4280;50.534;8.708;2024-02-28T14:13:48;7.80;1.00
8487;DHT22;4280;50.534;8.708;2024-02-28T14:16:14;7.90;1.00
8487;DHT22;4280;50.534;8.708;2024-02-28T14:18:40;8.00;1.00
8487;DHT22;4280;50.534;8.708;2024-02-28T14:21:05;7.90;1.00
8487;DHT22;4280;50.534;8.708;2024-02-28T14:23:31;7.80;1.00
8487;DHT22;4280;50.534;8.708;2024-02-28T14:25:57;7.70;1.00
8487;DHT22;4280;50.534;8.708;2024-02-28T14:28:23;7.80;1.00
8487;DHT22;4280;50.534;8.708;2024-02-28T14:30:49;7.80;1.00
8487;DHT22;4280;50.534;8.708;2024-02-28T14:33:15;7.80;1.00
8487;DHT22;4280;50.534;8.708;2024-02-28T14:35:41;7.80;1.00
8487;DHT22;4280;50.534;8.708;2024-02-28T14:38:07;8.00;1.00
8487;DHT22;4280;50.534;8.708;2024-02-28T14:40:33;8.00;1.00
8487;DHT22;4280;50.534;8.708;2024-02-28T14:42:59;8.00;1.00
8487;DHT22;4280;50.534;8.708;2024-02-28T14:45:24;8.00;1.00
8487;DHT22;4280;50.534;8.708;2024-02-28T14:47:53;8.10;1.00
8487;DHT22;4280;50.534;8.708;2024-02-28T14:50:19;8.30;1.00
8487;DHT22;4280;50.534;8.708;2024-02-28T14:52:46;8.30;1.00
8487;DHT22;4280;50.534;8.708;2024-02-28T14:55:11;8.30;1.00
8487;DHT22;4280;50.534;8.708;2024-02-28T14:57:38;8.30;1.00
8487;DHT22;4280;50.534;8.708;2024-02-28T15:00:06;8.30;1.00
8487;DHT22;4280;50.534;8.708;2024-02-28T15:02:39;8.30;1.00
8487;DHT22;4280;50.534;8.708;2024-02-28T15:05:05;8.40;1.00
8487;DHT22;4280;50.534;8.708;2024-02-28T15:07:32;8.40;1.00
8487;DHT22;4280;50.534;8.708;2024-02-28T15:09:58;8.30;1.00
8487;DHT22;4280;50.534;8.708;2024-02-28T15:12:28;8.20;1.00
8487;DHT22;4280;50.534;8.708;2024-02-28T15:14:55;8.00;1.00
8487;DHT22;4280;50.534;8.708;2024-02-28T15:17:21;8.00;1.00
8487;DHT22;4280;50.534;8.708;2024-02-28T15:19:47;8.00;1.00
8487;DHT22;4280;50.534;8.708;2024-02-28T15:22:13;8.00;1.00
8487;DHT22;4280;50.534;8.708;2024-02-28T15:24:38;7.90;1.00
8487;DHT22;4280;50.534;8.708;2024-02-28T15:27:05;7.90;1.00
8487;DHT22;4280;50.534;8.708;2024-02-28T15:29:32;8.00;1.00
8487;DHT22;4280;50.534;8.708;2024-02-28T15:31:58;8.00;1.00
8487;DHT22;4280;50.534;8.708;2024-02-28T15:34:24;8.00;1.00
8487;DHT22;4280;50.534;8.708;2024-02-28T15:36:50;8.00;1.00
8487;DHT22;4280;50.534;8.708;2024-02-28T15:39:16;7.80;1.00
8487;DHT22;4280;50.534;8.708;2024-02-28T15:41:42;7.80;1.00
8487;DHT22;4280;50.534;8.708;2024-02-28T15:44:08;7.80;1.00
8487;DHT22;4280;50.534;8.708;2024-02-28T15:46:33;7.80;1.00
8487;DHT22;4280;50.534;8.708;2024-02-28T15:48:59;7.70;1.00
8487;DHT22;4280;50.534;8.708;2024-02-28T15:51:26;7.70;1.00
8487;DHT22;4280;50.534;8.708;2024-02-28T15:53:52;7.60;1.00
8487;DHT22;4280;50.534;8.708;2024-02-28T15:56:18;7.50;1.00
8487;DHT22;4280;50.534;8.708;2024-02-28T15:58:44;7.50;1.00
8487;DHT22;4280;50.534;8.708;2024-02-28T16:01:13;7.50;1.00
8487;DHT22;4280;50.534;8.708;2024-02-28T16:03:38;7.40;1.00
8487;DHT22;4280;50.534;8.708;2024-02-28T16:06:08;7.40;1.00
8487;DHT22;4280;50.534;8.708;2024-02-28T16:08:39;7.30;1.00
8487;DHT22;4280;50.534;8.708;2024-02-28T16:11:07;7.30;1.00
8487;DHT22;4280;50.534;8.708;2024-02-28T16:13:33;7.10;1.00
8487;DHT22;4280;50.534;8.708;2024-02-28T16:15:59;7.00;1.00
8487;DHT22;4280;50.534;8.708;2024-02-28T16:18:24;7.00;1.00
8487;DHT22;4280;50.534;8.708;2024-02-28T16:20:50;6.90;1.00
8487;DHT22;4280;50.534;8.708;2024-02-28T16:23:16;6.90;1.00
8487;DHT22;4280;50.534;8.708;2024-02-28T16:25:42;6.80;1.00
8487;DHT22;4280;50.534;8.708;2024-02-28T16:28:08;6.70;1.00